sensor_id;sensor_type;location;lat;lon;timestamp;temperature;humidity
71177;DHT22;58877;51.992;4.504;2023-07-31T00:01:47;17.84;89.22
71177;DHT22;58877;51.992;4.504;2023-07-31T00:04:17;17.84;89.23
71177;DHT22;58877;51.992;4.504;2023-07-31T00:06:44;17.75;89.40
71177;DHT22;58877;51.992;4.504;2023-07-31T00:09:14;17.75;89.53
71177;DHT22;58877;51.992;4.504;2023-07-31T00:11:39;17.75;89.32
71177;DHT22;58877;51.992;4.504;2023-07-31T00:14:08;17.70;89.47
71177;DHT22;58877;51.992;4.504;2023-07-31T00:16:33;17.67;89.40
71177;DHT22;58877;51.992;4.504;2023-07-31T00:19:07;17.69;89.63
71177;DHT22;58877;51.992;4.504;2023-07-31T00:21:34;17.67;89.61
71177;DHT22;58877;51.992;4.504;2023-07-31T00:23:59;17.69;89.66
71177;DHT22;58877;51.992;4.504;2023-07-31T00:26:27;17.62;89.83
71177;DHT22;58877;51.992;4.504;2023-07-31T00:28:53;17.60;90.01
71177;DHT22;58877;51.992;4.504;2023-07-31T00:31:21;17.64;89.84
71177;DHT22;58877;51.992;4.504;2023-07-31T00:33:50;17.62;89.64
71177;DHT22;58877;51.992;4.504;2023-07-31T00:36:16;17.63;89.83
71177;DHT22;58877;51.992;4.504;2023-07-31T00:38:43;17.59;89.94
71177;DHT22;58877;51.992;4.504;2023-07-31T00:41:10;17.60;89.95
71177;DHT22;58877;51.992;4.504;2023-07-31T00:43:36;17.57;90.17
71177;DHT22;58877;51.992;4.504;2023-07-31T00:46:03;17.55;90.31
71177;DHT22;58877;51.992;4.504;2023-07-31T00:48:29;17.54;90.20
71177;DHT22;58877;51.992;4.504;2023-07-31T00:50:56;17.57;90.40
71177;DHT22;58877;51.992;4.504;2023-07-31T00:53:24;17.53;90.30
71177;DHT22;58877;51.992;4.504;2023-07-31T00:55:52;17.63;90.09
71177;DHT22;58877;51.992;4.504;2023-07-31T00:58:22;17.59;89.82
71177;DHT22;58877;51.992;4.504;2023-07-31T01:01:08;17.69;89.62
71177;DHT22;58877;51.992;4.504;2023-07-31T01:03:34;17.55;89.47
71177;DHT22;58877;51.992;4.504;2023-07-31T01:06:17;17.30;89.96
71177;DHT22;58877;51.992;4.504;2023-07-31T01:09:12;17.30;89.98
71177;DHT22;58877;51.992;4.504;2023-07-31T01:12:06;17.26;89.97
71177;DHT22;58877;51.992;4.504;2023-07-31T01:14:32;17.19;90.24
71177;DHT22;58877;51.992;4.504;2023-07-31T01:16:58;17.26;90.34
71177;DHT22;58877;51.992;4.504;2023-07-31T01:19:25;17.24;90.27
71177;DHT22;58877;51.992;4.504;2023-07-31T01:22:27;17.34;90.10
71177;DHT22;58877;51.992;4.504;2023-07-31T01:27:53;17.50;89.68
71177;DHT22;58877;51.992;4.504;2023-07-31T01:30:25;17.60;89.47
71177;DHT22;58877;51.992;4.504;2023-07-31T01:32:55;17.64;89.27
71177;DHT22;58877;51.992;4.504;2023-07-31T01:35:23;17.66;89.01
71177;DHT22;58877;51.992;4.504;2023-07-31T01:37:49;17.69;88.76
71177;DHT22;58877;51.992;4.504;2023-07-31T01:40:17;17.71;88.61
71177;DHT22;58877;51.992;4.504;2023-07-31T01:42:46;17.62;88.48
71177;DHT22;58877;51.992;4.504;2023-07-31T01:45:15;17.64;87.95
71177;DHT22;58877;51.992;4.504;2023-07-31T01:47:46;17.71;87.85
71177;DHT22;58877;51.992;4.504;2023-07-31T01:50:22;17.80;87.59
71177;DHT22;58877;51.992;4.504;2023-07-31T01:52:48;17.75;87.20
71177;DHT22;58877;51.992;4.504;2023-07-31T01:55:13;17.83;86.96
71177;DHT22;58877;51.992;4.504;2023-07-31T01:57:42;17.83;86.86
71177;DHT22;58877;51.992;4.504;2023-07-31T02:00:11;17.73;87.12
71177;DHT22;58877;51.992;4.504;2023-07-31T02:02:45;17.77;86.98
71177;DHT22;58877;51.992;4.504;2023-07-31T02:05:23;17.74;87.06
71177;DHT22;58877;51.992;4.504;2023-07-31T02:07:58;17.78;87.19
71177;DHT22;58877;51.992;4.504;2023-07-31T02:10:23;17.75;86.65
71177;DHT22;58877;51.992;4.504;2023-07-31T02:12:52;17.81;87.02
71177;DHT22;58877;51.992;4.504;2023-07-31T02:15:18;17.85;86.79
71177;DHT22;58877;51.992;4.504;2023-07-31T02:17:44;17.81;86.50
71177;DHT22;58877;51.992;4.504;2023-07-31T02:20:10;17.87;86.45
71177;DHT22;58877;51.992;4.504;2023-07-31T02:22:35;17.84;86.18
71177;DHT22;58877;51.992;4.504;2023-07-31T02:25:04;17.80;86.05
71177;DHT22;58877;51.992;4.504;2023-07-31T02:27:41;17.80;85.96
71177;DHT22;58877;51.992;4.504;2023-07-31T02:30:29;17.84;85.72
71177;DHT22;58877;51.992;4.504;2023-07-31T02:32:55;17.84;85.57
71177;DHT22;58877;51.992;4.504;2023-07-31T02:35:20;17.80;85.29
71177;DHT22;58877;51.992;4.504;2023-07-31T02:37:46;17.83;85.20
71177;DHT22;58877;51.992;4.504;2023-07-31T02:40:15;17.83;84.78
71177;DHT22;58877;51.992;4.504;2023-07-31T02:42:50;17.84;84.67
71177;DHT22;58877;51.992;4.504;2023-07-31T02:45:16;17.78;84.33
71177;DHT22;58877;51.992;4.504;2023-07-31T02:47:50;17.77;83.89
71177;DHT22;58877;51.992;4.504;2023-07-31T02:50:15;17.83;84.03
71177;DHT22;58877;51.992;4.504;2023-07-31T02:52:41;17.80;83.84
71177;DHT22;58877;51.992;4.504;2023-07-31T02:55:07;17.88;83.86
71177;DHT22;58877;51.992;4.504;2023-07-31T02:57:38;17.90;83.80
71177;DHT22;58877;51.992;4.504;2023-07-31T03:00:08;17.88;83.77
71177;DHT22;58877;51.992;4.504;2023-07-31T03:02:36;17.88;83.71
71177;DHT22;58877;51.992;4.504;2023-07-31T03:05:07;17.90;83.63
71177;DHT22;58877;51.992;4.504;2023-07-31T03:07:33;17.90;83.85
71177;DHT22;58877;51.992;4.504;2023-07-31T03:09:59;17.91;83.81
71177;DHT22;58877;51.992;4.504;2023-07-31T03:12:27;17.93;83.61
71177;DHT22;58877;51.992;4.504;2023-07-31T03:14:57;17.91;83.40
71177;DHT22;58877;51.992;4.504;2023-07-31T03:17:23;17.97;83.52
71177;DHT22;58877;51.992;4.504;2023-07-31T03:19:51;17.98;83.29
71177;DHT22;58877;51.992;4.504;2023-07-31T03:22:25;17.97;83.26
71177;DHT22;58877;51.992;4.504;2023-07-31T03:24:54;17.95;83.34
71177;DHT22;58877;51.992;4.504;2023-07-31T03:27:20;18.05;83.35
71177;DHT22;58877;51.992;4.504;2023-07-31T03:29:45;18.02;83.55
71177;DHT22;58877;51.992;4.504;2023-07-31T03:32:11;17.97;83.86
71177;DHT22;58877;51.992;4.504;2023-07-31T03:34:37;17.93;84.07
71177;DHT22;58877;51.992;4.504;2023-07-31T03:37:03;17.87;84.43
71177;DHT22;58877;51.992;4.504;2023-07-31T03:39:30;17.93;84.75
71177;DHT22;58877;51.992;4.504;2023-07-31T03:41:56;17.94;84.98
71177;DHT22;58877;51.992;4.504;2023-07-31T03:44:24;17.74;85.92
71177;DHT22;58877;51.992;4.504;2023-07-31T03:46:53;17.71;86.50
71177;DHT22;58877;51.992;4.504;2023-07-31T03:49:25;17.69;86.90
71177;DHT22;58877;51.992;4.504;2023-07-31T03:51:56;17.73;87.28
71177;DHT22;58877;51.992;4.504;2023-07-31T03:54:25;17.66;87.59
71177;DHT22;58877;51.992;4.504;2023-07-31T03:56:52;17.64;87.88
71177;DHT22;58877;51.992;4.504;2023-07-31T03:59:19;17.69;87.87
71177;DHT22;58877;51.992;4.504;2023-07-31T04:01:44;17.70;87.74
71177;DHT22;58877;51.992;4.504;2023-07-31T04:04:11;17.74;87.84
71177;DHT22;58877;51.992;4.504;2023-07-31T04:06:38;17.71;87.80
71177;DHT22;58877;51.992;4.504;2023-07-31T04:09:04;17.70;87.89
71177;DHT22;58877;51.992;4.504;2023-07-31T04:11:30;17.74;88.04
71177;DHT22;58877;51.992;4.504;2023-07-31T04:13:57;17.75;88.03
71177;DHT22;58877;51.992;4.504;2023-07-31T04:16:28;17.77;87.89
71177;DHT22;58877;51.992;4.504;2023-07-31T04:18:55;17.83;87.95
71177;DHT22;58877;51.992;4.504;2023-07-31T04:21:20;17.83;88.06
71177;DHT22;58877;51.992;4.504;2023-07-31T04:23:46;17.83;87.93
71177;DHT22;58877;51.992;4.504;2023-07-31T04:26:12;17.74;87.90
71177;DHT22;58877;51.992;4.504;2023-07-31T04:28:38;17.60;88.05
71177;DHT22;58877;51.992;4.504;2023-07-31T04:31:03;17.57;88.34
71177;DHT22;58877;51.992;4.504;2023-07-31T04:33:29;17.54;88.36
71177;DHT22;58877;51.992;4.504;2023-07-31T04:35:55;17.53;88.36
71177;DHT22;58877;51.992;4.504;2023-07-31T04:38:21;17.50;88.53
71177;DHT22;58877;51.992;4.504;2023-07-31T04:40:56;17.43;88.58
71177;DHT22;58877;51.992;4.504;2023-07-31T04:43:22;17.43;88.64
71177;DHT22;58877;51.992;4.504;2023-07-31T04:45:48;17.42;88.60
71177;DHT22;58877;51.992;4.504;2023-07-31T04:48:15;17.42;88.62
71177;DHT22;58877;51.992;4.504;2023-07-31T04:50:41;17.30;88.66
71177;DHT22;58877;51.992;4.504;2023-07-31T04:53:06;17.32;88.76
71177;DHT22;58877;51.992;4.504;2023-07-31T04:55:32;17.32;88.73
71177;DHT22;58877;51.992;4.504;2023-07-31T04:57:58;17.32;88.56
71177;DHT22;58877;51.992;4.504;2023-07-31T05:00:24;17.36;88.69
71177;DHT22;58877;51.992;4.504;2023-07-31T05:02:50;17.39;88.81
71177;DHT22;58877;51.992;4.504;2023-07-31T05:05:15;17.40;88.55
71177;DHT22;58877;51.992;4.504;2023-07-31T05:07:41;17.33;88.79
71177;DHT22;58877;51.992;4.504;2023-07-31T05:10:07;17.33;88.96
71177;DHT22;58877;51.992;4.504;2023-07-31T05:12:33;17.30;89.08
71177;DHT22;58877;51.992;4.504;2023-07-31T05:14:58;17.32;89.02
71177;DHT22;58877;51.992;4.504;2023-07-31T05:17:24;17.29;88.83
71177;DHT22;58877;51.992;4.504;2023-07-31T05:19:50;17.34;89.06
71177;DHT22;58877;51.992;4.504;2023-07-31T05:22:16;17.42;89.01
71177;DHT22;58877;51.992;4.504;2023-07-31T05:24:41;17.44;88.90
71177;DHT22;58877;51.992;4.504;2023-07-31T05:27:07;17.44;88.91
71177;DHT22;58877;51.992;4.504;2023-07-31T05:29:33;17.49;88.90
71177;DHT22;58877;51.992;4.504;2023-07-31T05:31:59;17.51;88.72
71177;DHT22;58877;51.992;4.504;2023-07-31T05:34:24;17.54;88.75
71177;DHT22;58877;51.992;4.504;2023-07-31T05:36:50;17.62;88.55
71177;DHT22;58877;51.992;4.504;2023-07-31T05:39:16;17.60;88.59
71177;DHT22;58877;51.992;4.504;2023-07-31T05:41:41;17.55;88.50
71177;DHT22;58877;51.992;4.504;2023-07-31T05:44:09;17.53;89.01
71177;DHT22;58877;51.992;4.504;2023-07-31T05:46:35;17.55;88.94
71177;DHT22;58877;51.992;4.504;2023-07-31T05:49:00;17.54;89.08
71177;DHT22;58877;51.992;4.504;2023-07-31T05:51:26;17.57;89.12
71177;DHT22;58877;51.992;4.504;2023-07-31T05:53:53;17.53;89.13
71177;DHT22;58877;51.992;4.504;2023-07-31T05:56:18;17.62;89.32
71177;DHT22;58877;51.992;4.504;2023-07-31T05:58:44;17.55;89.30
71177;DHT22;58877;51.992;4.504;2023-07-31T06:01:13;17.66;89.24
71177;DHT22;58877;51.992;4.504;2023-07-31T06:03:38;17.64;89.19
71177;DHT22;58877;51.992;4.504;2023-07-31T06:06:04;17.64;89.38
71177;DHT22;58877;51.992;4.504;2023-07-31T06:08:30;17.60;89.51
71177;DHT22;58877;51.992;4.504;2023-07-31T06:10:56;17.63;89.67
71177;DHT22;58877;51.992;4.504;2023-07-31T06:13:22;17.69;89.60
71177;DHT22;58877;51.992;4.504;2023-07-31T06:15:47;17.69;89.70
71177;DHT22;58877;51.992;4.504;2023-07-31T06:18:13;17.67;89.82
71177;DHT22;58877;51.992;4.504;2023-07-31T06:20:39;17.59;90.06
71177;DHT22;58877;51.992;4.504;2023-07-31T06:23:06;17.70;89.99
71177;DHT22;58877;51.992;4.504;2023-07-31T06:25:31;17.69;89.99
71177;DHT22;58877;51.992;4.504;2023-07-31T06:27:57;17.75;89.92
71177;DHT22;58877;51.992;4.504;2023-07-31T06:30:22;17.80;89.65
71177;DHT22;58877;51.992;4.504;2023-07-31T06:32:48;17.87;89.67
71177;DHT22;58877;51.992;4.504;2023-07-31T06:35:14;17.81;89.59
71177;DHT22;58877;51.992;4.504;2023-07-31T06:37:39;17.80;89.68
71177;DHT22;58877;51.992;4.504;2023-07-31T06:40:06;17.83;89.73
71177;DHT22;58877;51.992;4.504;2023-07-31T06:42:34;17.83;89.80
71177;DHT22;58877;51.992;4.504;2023-07-31T06:45:01;17.83;89.89
71177;DHT22;58877;51.992;4.504;2023-07-31T06:47:27;17.75;89.97
71177;DHT22;58877;51.992;4.504;2023-07-31T06:49:57;17.90;89.99
71177;DHT22;58877;51.992;4.504;2023-07-31T06:52:22;17.91;89.95
71177;DHT22;58877;51.992;4.504;2023-07-31T06:55:14;17.91;89.68
71177;DHT22;58877;51.992;4.504;2023-07-31T06:57:43;17.84;90.24
71177;DHT22;58877;51.992;4.504;2023-07-31T07:00:08;17.91;90.20
71177;DHT22;58877;51.992;4.504;2023-07-31T07:02:34;17.97;89.98
71177;DHT22;58877;51.992;4.504;2023-07-31T07:05:00;17.93;89.97
71177;DHT22;58877;51.992;4.504;2023-07-31T07:07:26;18.02;90.02
71177;DHT22;58877;51.992;4.504;2023-07-31T07:09:52;18.07;89.88
71177;DHT22;58877;51.992;4.504;2023-07-31T07:12:17;18.17;89.77
71177;DHT22;58877;51.992;4.504;2023-07-31T07:14:43;18.17;89.57
71177;DHT22;58877;51.992;4.504;2023-07-31T07:17:11;18.09;89.73
71177;DHT22;58877;51.992;4.504;2023-07-31T07:19:40;17.97;90.15
71177;DHT22;58877;51.992;4.504;2023-07-31T07:22:06;17.94;90.23
71177;DHT22;58877;51.992;4.504;2023-07-31T07:24:32;18.00;90.26
71177;DHT22;58877;51.992;4.504;2023-07-31T07:26:58;18.11;89.95
71177;DHT22;58877;51.992;4.504;2023-07-31T07:29:23;18.18;89.94
71177;DHT22;58877;51.992;4.504;2023-07-31T07:31:49;18.22;89.73
71177;DHT22;58877;51.992;4.504;2023-07-31T07:34:14;18.17;89.84
71177;DHT22;58877;51.992;4.504;2023-07-31T07:36:40;18.19;89.82
71177;DHT22;58877;51.992;4.504;2023-07-31T07:39:10;18.19;89.95
71177;DHT22;58877;51.992;4.504;2023-07-31T07:41:36;18.24;90.07
71177;DHT22;58877;51.992;4.504;2023-07-31T07:44:02;18.22;89.97
71177;DHT22;58877;51.992;4.504;2023-07-31T07:46:27;18.32;90.01
71177;DHT22;58877;51.992;4.504;2023-07-31T07:48:53;18.24;90.11
71177;DHT22;58877;51.992;4.504;2023-07-31T07:51:21;18.25;90.33
71177;DHT22;58877;51.992;4.504;2023-07-31T07:53:47;18.28;90.28
71177;DHT22;58877;51.992;4.504;2023-07-31T07:56:13;18.35;90.05
71177;DHT22;58877;51.992;4.504;2023-07-31T07:58:38;18.25;90.13
71177;DHT22;58877;51.992;4.504;2023-07-31T08:01:07;18.31;90.40
71177;DHT22;58877;51.992;4.504;2023-07-31T08:03:35;18.19;90.53
71177;DHT22;58877;51.992;4.504;2023-07-31T08:06:01;18.37;90.32
71177;DHT22;58877;51.992;4.504;2023-07-31T08:08:28;18.35;90.51
71177;DHT22;58877;51.992;4.504;2023-07-31T08:10:54;18.35;90.35
71177;DHT22;58877;51.992;4.504;2023-07-31T08:13:20;18.25;90.57
71177;DHT22;58877;51.992;4.504;2023-07-31T08:15:45;18.19;90.98
71177;DHT22;58877;51.992;4.504;2023-07-31T08:18:12;18.21;90.94
71177;DHT22;58877;51.992;4.504;2023-07-31T08:20:38;18.25;90.91
71177;DHT22;58877;51.992;4.504;2023-07-31T08:23:04;18.19;90.80
71177;DHT22;58877;51.992;4.504;2023-07-31T08:25:35;18.18;91.05
71177;DHT22;58877;51.992;4.504;2023-07-31T08:28:01;18.14;91.40
71177;DHT22;58877;51.992;4.504;2023-07-31T08:30:27;18.25;91.28
71177;DHT22;58877;51.992;4.504;2023-07-31T08:32:52;18.14;91.23
71177;DHT22;58877;51.992;4.504;2023-07-31T08:35:18;18.25;91.25
71177;DHT22;58877;51.992;4.504;2023-07-31T08:37:44;18.31;91.17
71177;DHT22;58877;51.992;4.504;2023-07-31T08:40:10;18.34;91.12
71177;DHT22;58877;51.992;4.504;2023-07-31T08:42:46;18.39;90.99
71177;DHT22;58877;51.992;4.504;2023-07-31T08:45:15;18.44;91.00
71177;DHT22;58877;51.992;4.504;2023-07-31T08:47:49;18.59;90.92
71177;DHT22;58877;51.992;4.504;2023-07-31T08:50:17;18.48;90.44
71177;DHT22;58877;51.992;4.504;2023-07-31T08:52:43;18.45;90.90
71177;DHT22;58877;51.992;4.504;2023-07-31T08:55:09;18.60;90.78
71177;DHT22;58877;51.992;4.504;2023-07-31T08:57:37;18.52;90.31
71177;DHT22;58877;51.992;4.504;2023-07-31T09:00:05;18.60;90.47
71177;DHT22;58877;51.992;4.504;2023-07-31T09:02:56;18.62;90.08
71177;DHT22;58877;51.992;4.504;2023-07-31T09:05:23;18.59;90.28
71177;DHT22;58877;51.992;4.504;2023-07-31T09:07:52;18.55;90.61
71177;DHT22;58877;51.992;4.504;2023-07-31T09:10:17;18.66;90.46
71177;DHT22;58877;51.992;4.504;2023-07-31T09:26:56;18.76;90.11
71177;DHT22;58877;51.992;4.504;2023-07-31T09:29:27;18.77;90.18
71177;DHT22;58877;51.992;4.504;2023-07-31T09:31:54;18.82;89.79
71177;DHT22;58877;51.992;4.504;2023-07-31T09:34:38;18.79;89.86
71177;DHT22;58877;51.992;4.504;2023-07-31T09:37:06;18.75;90.01
71177;DHT22;58877;51.992;4.504;2023-07-31T09:39:32;18.72;89.92
71177;DHT22;58877;51.992;4.504;2023-07-31T09:41:57;18.72;90.01
71177;DHT22;58877;51.992;4.504;2023-07-31T09:44:40;18.75;89.97
71177;DHT22;58877;51.992;4.504;2023-07-31T09:47:06;18.83;90.12
71177;DHT22;58877;51.992;4.504;2023-07-31T09:49:32;18.72;90.10
71177;DHT22;58877;51.992;4.504;2023-07-31T09:51:58;18.76;90.20
71177;DHT22;58877;51.992;4.504;2023-07-31T09:54:24;18.72;89.95
71177;DHT22;58877;51.992;4.504;2023-07-31T09:56:50;18.72;90.00
71177;DHT22;58877;51.992;4.504;2023-07-31T09:59:20;18.72;89.81
71177;DHT22;58877;51.992;4.504;2023-07-31T10:01:49;18.69;89.81
71177;DHT22;58877;51.992;4.504;2023-07-31T10:04:17;18.90;89.65
71177;DHT22;58877;51.992;4.504;2023-07-31T10:06:49;19.07;89.50
71177;DHT22;58877;51.992;4.504;2023-07-31T10:09:19;19.12;89.01
71177;DHT22;58877;51.992;4.504;2023-07-31T10:11:59;19.19;89.17
71177;DHT22;58877;51.992;4.504;2023-07-31T10:14:27;19.12;88.69
71177;DHT22;58877;51.992;4.504;2023-07-31T10:17:00;19.19;88.97
71177;DHT22;58877;51.992;4.504;2023-07-31T10:19:30;19.23;88.69
71177;DHT22;58877;51.992;4.504;2023-07-31T10:22:00;19.40;88.70
71177;DHT22;58877;51.992;4.504;2023-07-31T10:24:29;19.43;88.18
71177;DHT22;58877;51.992;4.504;2023-07-31T10:26:58;19.37;88.59
71177;DHT22;58877;51.992;4.504;2023-07-31T10:29:26;19.35;88.23
71177;DHT22;58877;51.992;4.504;2023-07-31T10:31:57;19.27;88.08
71177;DHT22;58877;51.992;4.504;2023-07-31T10:34:24;19.33;87.74
71177;DHT22;58877;51.992;4.504;2023-07-31T10:36:50;19.40;88.08
71177;DHT22;58877;51.992;4.504;2023-07-31T10:39:35;19.47;87.99
71177;DHT22;58877;51.992;4.504;2023-07-31T10:42:13;19.40;87.50
71177;DHT22;58877;51.992;4.504;2023-07-31T10:44:44;19.33;87.43
71177;DHT22;58877;51.992;4.504;2023-07-31T10:47:14;19.33;87.98
71177;DHT22;58877;51.992;4.504;2023-07-31T10:49:40;19.31;87.53
71177;DHT22;58877;51.992;4.504;2023-07-31T10:52:10;19.43;87.76
71177;DHT22;58877;51.992;4.504;2023-07-31T10:54:36;19.55;87.52
71177;DHT22;58877;51.992;4.504;2023-07-31T10:57:02;19.57;87.40
71177;DHT22;58877;51.992;4.504;2023-07-31T10:59:34;19.61;86.89
71177;DHT22;58877;51.992;4.504;2023-07-31T11:02:00;19.53;87.51
71177;DHT22;58877;51.992;4.504;2023-07-31T11:04:28;19.43;87.39
71177;DHT22;58877;51.992;4.504;2023-07-31T11:07:01;19.49;87.74
71177;DHT22;58877;51.992;4.504;2023-07-31T11:09:32;19.58;87.27
71177;DHT22;58877;51.992;4.504;2023-07-31T11:11:59;19.79;87.22
71177;DHT22;58877;51.992;4.504;2023-07-31T11:14:25;19.92;86.68
71177;DHT22;58877;51.992;4.504;2023-07-31T11:16:51;19.88;86.50
71177;DHT22;58877;51.992;4.504;2023-07-31T11:19:24;19.74;87.00
71177;DHT22;58877;51.992;4.504;2023-07-31T11:21:51;19.68;87.39
71177;DHT22;58877;51.992;4.504;2023-07-31T11:24:18;19.71;87.73
71177;DHT22;58877;51.992;4.504;2023-07-31T11:26:52;19.95;87.04
71177;DHT22;58877;51.992;4.504;2023-07-31T11:29:18;19.91;86.59
71177;DHT22;58877;51.992;4.504;2023-07-31T11:31:44;19.85;87.10
71177;DHT22;58877;51.992;4.504;2023-07-31T11:34:10;19.85;86.86
71177;DHT22;58877;51.992;4.504;2023-07-31T11:36:36;19.85;86.72
71177;DHT22;58877;51.992;4.504;2023-07-31T11:39:08;19.91;86.42
71177;DHT22;58877;51.992;4.504;2023-07-31T11:41:34;19.82;86.32
71177;DHT22;58877;51.992;4.504;2023-07-31T11:44:00;19.84;86.02
71177;DHT22;58877;51.992;4.504;2023-07-31T11:46:26;19.78;85.96
71177;DHT22;58877;51.992;4.504;2023-07-31T11:48:59;19.91;86.23
71177;DHT22;58877;51.992;4.504;2023-07-31T11:51:27;19.87;85.95
71177;DHT22;58877;51.992;4.504;2023-07-31T11:53:58;19.89;85.97
71177;DHT22;58877;51.992;4.504;2023-07-31T11:56:26;19.88;85.74
71177;DHT22;58877;51.992;4.504;2023-07-31T11:58:58;19.87;85.80
71177;DHT22;58877;51.992;4.504;2023-07-31T12:01:26;19.99;85.40
71177;DHT22;58877;51.992;4.504;2023-07-31T12:03:53;19.88;85.59
71177;DHT22;58877;51.992;4.504;2023-07-31T12:06:19;19.84;85.68
71177;DHT22;58877;51.992;4.504;2023-07-31T12:08:46;19.84;86.29
71177;DHT22;58877;51.992;4.504;2023-07-31T12:11:12;20.07;86.22
71177;DHT22;58877;51.992;4.504;2023-07-31T12:13:43;20.17;84.98
71177;DHT22;58877;51.992;4.504;2023-07-31T12:16:11;20.22;85.24
71177;DHT22;58877;51.992;4.504;2023-07-31T12:18:39;20.09;84.63
71177;DHT22;58877;51.992;4.504;2023-07-31T12:21:08;20.12;85.29
71177;DHT22;58877;51.992;4.504;2023-07-31T12:23:36;20.33;85.23
71177;DHT22;58877;51.992;4.504;2023-07-31T12:26:05;20.14;84.45
71177;DHT22;58877;51.992;4.504;2023-07-31T12:28:42;20.08;85.28
71177;DHT22;58877;51.992;4.504;2023-07-31T12:31:14;19.87;85.77
71177;DHT22;58877;51.992;4.504;2023-07-31T12:33:41;19.77;86.09
71177;DHT22;58877;51.992;4.504;2023-07-31T12:36:10;19.84;86.87
71177;DHT22;58877;51.992;4.504;2023-07-31T12:38:37;19.98;86.41
71177;DHT22;58877;51.992;4.504;2023-07-31T12:41:02;20.01;86.13
71177;DHT22;58877;51.992;4.504;2023-07-31T12:43:28;19.98;86.33
71177;DHT22;58877;51.992;4.504;2023-07-31T12:45:55;19.88;86.46
71177;DHT22;58877;51.992;4.504;2023-07-31T12:48:25;19.97;86.49
71177;DHT22;58877;51.992;4.504;2023-07-31T12:50:51;19.95;86.34
71177;DHT22;58877;51.992;4.504;2023-07-31T12:53:16;19.89;86.17
71177;DHT22;58877;51.992;4.504;2023-07-31T12:55:42;20.02;86.39
71177;DHT22;58877;51.992;4.504;2023-07-31T12:58:08;19.91;86.95
71177;DHT22;58877;51.992;4.504;2023-07-31T13:00:34;19.79;87.17
71177;DHT22;58877;51.992;4.504;2023-07-31T13:03:01;19.73;87.77
71177;DHT22;58877;51.992;4.504;2023-07-31T13:05:27;19.82;87.25
71177;DHT22;58877;51.992;4.504;2023-07-31T13:07:53;19.88;87.68
71177;DHT22;58877;51.992;4.504;2023-07-31T13:10:19;19.95;86.97
71177;DHT22;58877;51.992;4.504;2023-07-31T13:12:45;19.98;87.04
71177;DHT22;58877;51.992;4.504;2023-07-31T13:15:11;20.08;87.01
71177;DHT22;58877;51.992;4.504;2023-07-31T13:17:37;20.12;86.78
71177;DHT22;58877;51.992;4.504;2023-07-31T13:20:03;19.92;86.81
71177;DHT22;58877;51.992;4.504;2023-07-31T13:22:30;19.94;86.79
71177;DHT22;58877;51.992;4.504;2023-07-31T13:24:56;20.07;87.09
71177;DHT22;58877;51.992;4.504;2023-07-31T13:27:22;20.12;86.57
71177;DHT22;58877;51.992;4.504;2023-07-31T13:29:50;20.08;86.58
71177;DHT22;58877;51.992;4.504;2023-07-31T13:32:18;20.01;86.69
71177;DHT22;58877;51.992;4.504;2023-07-31T13:34:45;19.92;87.22
71177;DHT22;58877;51.992;4.504;2023-07-31T13:37:11;20.12;86.68
71177;DHT22;58877;51.992;4.504;2023-07-31T13:39:38;20.12;86.46
71177;DHT22;58877;51.992;4.504;2023-07-31T13:42:08;19.95;85.77
71177;DHT22;58877;51.992;4.504;2023-07-31T13:44:38;19.92;86.91
71177;DHT22;58877;51.992;4.504;2023-07-31T13:47:05;19.92;87.27
71177;DHT22;58877;51.992;4.504;2023-07-31T13:49:31;19.95;87.95
71177;DHT22;58877;51.992;4.504;2023-07-31T13:51:58;19.99;87.62
71177;DHT22;58877;51.992;4.504;2023-07-31T13:54:23;19.94;88.08
71177;DHT22;58877;51.992;4.504;2023-07-31T13:56:49;19.97;88.12
71177;DHT22;58877;51.992;4.504;2023-07-31T13:59:15;19.97;88.05
71177;DHT22;58877;51.992;4.504;2023-07-31T14:01:43;19.98;88.21
71177;DHT22;58877;51.992;4.504;2023-07-31T14:04:08;19.95;88.32
71177;DHT22;58877;51.992;4.504;2023-07-31T14:06:34;19.99;87.96
71177;DHT22;58877;51.992;4.504;2023-07-31T14:09:03;19.92;88.27
71177;DHT22;58877;51.992;4.504;2023-07-31T14:11:30;19.77;87.99
71177;DHT22;58877;51.992;4.504;2023-07-31T14:13:56;19.77;87.94
71177;DHT22;58877;51.992;4.504;2023-07-31T14:16:22;19.88;88.36
71177;DHT22;58877;51.992;4.504;2023-07-31T14:18:48;19.85;87.55
71177;DHT22;58877;51.992;4.504;2023-07-31T14:21:14;19.75;87.69
71177;DHT22;58877;51.992;4.504;2023-07-31T14:23:40;19.74;87.81
71177;DHT22;58877;51.992;4.504;2023-07-31T14:26:06;19.78;88.07
71177;DHT22;58877;51.992;4.504;2023-07-31T14:28:32;19.81;88.17
71177;DHT22;58877;51.992;4.504;2023-07-31T14:30:58;19.88;88.00
71177;DHT22;58877;51.992;4.504;2023-07-31T14:33:24;19.85;87.90
71177;DHT22;58877;51.992;4.504;2023-07-31T14:35:50;19.91;87.50
71177;DHT22;58877;51.992;4.504;2023-07-31T14:38:18;19.84;88.07
71177;DHT22;58877;51.992;4.504;2023-07-31T14:40:44;19.91;88.02
71177;DHT22;58877;51.992;4.504;2023-07-31T14:43:10;19.87;88.43
71177;DHT22;58877;51.992;4.504;2023-07-31T14:45:35;19.79;88.65
71177;DHT22;58877;51.992;4.504;2023-07-31T14:48:01;19.68;88.77
71177;DHT22;58877;51.992;4.504;2023-07-31T14:50:27;19.71;88.80
71177;DHT22;58877;51.992;4.504;2023-07-31T14:52:52;19.46;89.36
71177;DHT22;58877;51.992;4.504;2023-07-31T14:55:19;19.51;89.70
71177;DHT22;58877;51.992;4.504;2023-07-31T14:57:44;19.64;89.69
71177;DHT22;58877;51.992;4.504;2023-07-31T15:00:11;19.53;89.56
71177;DHT22;58877;51.992;4.504;2023-07-31T15:02:37;19.61;89.79
71177;DHT22;58877;51.992;4.504;2023-07-31T15:05:04;19.58;89.50
71177;DHT22;58877;51.992;4.504;2023-07-31T15:07:30;19.53;89.30
71177;DHT22;58877;51.992;4.504;2023-07-31T15:09:56;19.53;89.30
71177;DHT22;58877;51.992;4.504;2023-07-31T15:12:22;19.61;89.41
71177;DHT22;58877;51.992;4.504;2023-07-31T15:14:49;19.63;89.31
71177;DHT22;58877;51.992;4.504;2023-07-31T15:17:15;19.60;89.09
71177;DHT22;58877;51.992;4.504;2023-07-31T15:19:41;19.49;89.02
71177;DHT22;58877;51.992;4.504;2023-07-31T15:22:07;19.40;89.23
71177;DHT22;58877;51.992;4.504;2023-07-31T15:24:33;19.53;89.39
71177;DHT22;58877;51.992;4.504;2023-07-31T15:26:58;19.60;89.13
71177;DHT22;58877;51.992;4.504;2023-07-31T15:29:24;19.50;88.98
71177;DHT22;58877;51.992;4.504;2023-07-31T15:31:50;19.51;89.15
71177;DHT22;58877;51.992;4.504;2023-07-31T15:34:16;19.60;88.98
71177;DHT22;58877;51.992;4.504;2023-07-31T15:36:47;19.68;89.08
71177;DHT22;58877;51.992;4.504;2023-07-31T15:39:14;19.54;88.71
71177;DHT22;58877;51.992;4.504;2023-07-31T15:41:41;19.63;88.37
71177;DHT22;58877;51.992;4.504;2023-07-31T15:44:08;19.50;88.50
71177;DHT22;58877;51.992;4.504;2023-07-31T15:46:33;19.43;88.79
71177;DHT22;58877;51.992;4.504;2023-07-31T15:48:59;19.22;89.32
71177;DHT22;58877;51.992;4.504;2023-07-31T15:51:25;19.26;89.67